Other Surface Observations
Issued by NWS Missoula, MT

Home | Current Version | Previous Version | Text Only | Print | Product List | Glossary On
Versions: 1 2 3 4 5 6 7 8 9 10 11 12 13 14 15 16 17 18 19 20 21 22 23 24 25 26 27 28 29 30 31 32 33 34 35 36 37 38 39 40 41 42 43 44 45 46 47 48 49 50
000
SXUS55 KMSO 211543
OSOMSO
MONTANA AWOS SUMMARY
NATIONAL WEATHER SERVICE MISSOULA MT
843 AM MST TUE APR 21 2015

Montana AWOS Reports

LAUREL      |K6S8 211535Z AUTO 00000KT 1 1/2SM 09/M02 A2990 RMK AO1 T00891021
TWIN BRIDGES|K7S1 211535Z AUTO 18005KT 40SM 08/M02 A2992 RMK AO1 T00831021
ROUNDUP     |KRPX 211535Z AUTO 00000KT 40SM 11/M02 A2983 RMK AO1 T01111021
MALTA       |KM75 211535Z AUTO 06012G16KT 25SM 07/M03 A2991 RMK AO1 T00671032




USA.gov is the U.S. government's official web portal to all federal, state and local government web resources and services.